Time;durP1;ratioP1;P1;durP2;ratioP2;P2;SDS_P1;SDS_P2;PMS_P1;PMS_P2;Temp;Humidity;BMP_temperature;BMP_pressure;BME280_temperature;BME280_humidity;BME280_pressure;Samples;Min_cycle;Max_cycle;Signal;HPM_P1;HPM_P2
2022/05/06 00:00:13;;;;;;;20.73;14.35;;;;;;;;;;4772039;30;20072;-83
2022/05/06 00:02:42;;;;;;;19.58;13.60;;;;;;;;;;4771119;30;20056;-82
2022/05/06 00:05:09;;;;;;;25.08;16.05;;;;;;;;;;4772664;30;20064;-82
2022/05/06 00:07:35;;;;;;;23.42;15.07;;;;;;;;;;4772070;30;20448;-82
2022/05/06 00:10:04;;;;;;;26.33;15.20;;;;;;;;;;4771652;30;20462;-82
2022/05/06 00:12:30;;;;;;;24.10;15.40;;;9.60;99.90;;;;;;4770181;30;20163;-82
2022/05/06 00:14:57;;;;;;;23.23;15.15;;;;;;;;;;4756440;30;20063;-82
2022/05/06 00:17:23;;;;;;;24.60;15.38;;;;;;;;;;4770906;30;20063;-83
2022/05/06 00:19:49;;;;;;;25.33;16.33;;;;;;;;;;4772482;30;20098;-83
2022/05/06 00:22:15;;;;;;;30.05;15.70;;;;;;;;;;4770852;30;20060;-82
2022/05/06 00:24:41;;;;;;;27.58;15.70;;;;;;;;;;4771898;30;20060;-83
2022/05/06 00:27:10;;;;;;;25.05;16.05;;;;;;;;;;4771950;30;20056;-82
2022/05/06 00:29:36;;;;;;;24.70;15.45;;;;;;;;;;4771275;30;20140;-83
2022/05/06 00:32:05;;;;;;;23.02;15.70;;;;;;;;;;4770351;30;20064;-82
2022/05/06 00:34:35;;;;;;;24.83;15.88;;;;;;;;;;4756270;30;20109;-83
2022/05/06 00:37:01;;;;;;;23.23;15.77;;;;;;;;;;4771860;30;20556;-83
2022/05/06 00:39:27;;;;;;;24.65;15.20;;;;;;;;;;4755916;30;20065;-82
2022/05/06 00:41:56;;;;;;;23.80;16.25;;;;;;;;;;4770454;30;20377;-83
2022/05/06 00:44:25;;;;;;;26.58;16.15;;;;;;;;;;4771882;30;20193;-82
2022/05/06 00:46:54;;;;;;;25.83;16.45;;;;;;;;;;4771559;30;20135;-83
2022/05/06 00:49:20;;;;;;;25.08;16.67;;;;;;;;;;4755130;30;20520;-83
2022/05/06 00:51:46;;;;;;;26.67;15.95;;;;;;;;;;4769847;30;20051;-82
2022/05/06 00:54:13;;;;;;;27.33;17.02;;;;;;;;;;4771091;30;20055;-83
2022/05/06 00:56:39;;;;;;;28.17;17.58;;;;;;;;;;4770642;30;20087;-82
2022/05/06 01:01:48;;;;;;;27.70;16.70;;;8.80;99.90;;;;;;4708904;24;20053;-65
2022/05/06 01:04:16;;;;;;;27.15;16.17;;;8.20;99.90;;;;;;4751232;30;20057;-62
2022/05/06 01:06:43;;;;;;;28.08;17.25;;;8.50;99.90;;;;;;4735606;30;20168;-62
2022/05/06 01:09:16;;;;;;;28.23;18.13;;;8.30;99.90;;;;;;4741756;30;20117;-62
2022/05/06 01:11:42;;;;;;;31.27;18.67;;;8.80;99.90;;;;;;4737531;30;20066;-63
2022/05/06 01:14:08;;;;;;;30.15;18.67;;;9.00;99.90;;;;;;4753532;30;20067;-63
2022/05/06 01:16:35;;;;;;;29.63;18.38;;;8.70;99.90;;;;;;4753434;30;20044;-63
2022/05/06 01:19:01;;;;;;;31.27;18.42;;;8.70;99.90;;;;;;4737993;30;20057;-63
2022/05/06 01:21:27;;;;;;;31.65;18.45;;;8.50;99.90;;;;;;4735568;30;20053;-62
2022/05/06 01:23:53;;;;;;;31.52;18.95;;;8.80;99.90;;;;;;4735630;30;20071;-62
2022/05/06 01:26:19;;;;;;;34.45;20.95;;;8.40;99.90;;;;;;4735537;30;20052;-63
2022/05/06 01:28:46;;;;;;;33.53;20.85;;;8.10;99.90;;;;;;4735779;30;20049;-63
2022/05/06 01:31:21;;;;;;;31.73;20.48;;;8.60;99.90;;;;;;4735597;30;20056;-63
2022/05/06 01:33:54;;;;;;;33.20;19.55;;;8.40;99.90;;;;;;4735547;30;20476;-63
2022/05/06 01:36:22;;;;;;;30.15;19.40;;;8.70;99.90;;;;;;4752873;30;20124;-62
2022/05/06 01:38:52;;;;;;;31.48;19.10;;;8.20;99.90;;;;;;4753299;30;20056;-63
2022/05/06 01:41:23;;;;;;;29.95;20.10;;;8.20;99.90;;;;;;4753274;30;20052;-62
2022/05/06 01:44:07;;;;;;;29.15;18.75;;;8.10;99.90;;;;;;4753041;30;20497;-62
2022/05/06 01:46:36;;;;;;;28.05;18.10;;;8.00;99.90;;;;;;4753073;30;20058;-62
2022/05/06 01:49:02;;;;;;;34.75;19.25;;;8.30;99.90;;;;;;4752820;30;20070;-62
2022/05/06 01:51:29;;;;;;;32.00;18.90;;;8.30;99.90;;;;;;4752998;30;20048;-63
2022/05/06 01:53:55;;;;;;;31.50;18.85;;;8.50;99.90;;;;;;4753072;30;20062;-64
2022/05/06 01:56:21;;;;;;;30.83;19.23;;;8.00;99.90;;;;;;4753249;30;20451;-64
2022/05/06 01:58:47;;;;;;;29.50;19.83;;;7.60;99.90;;;;;;4752779;30;20413;-64
2022/05/06 02:01:14;;;;;;;30.33;20.10;;;8.10;99.90;;;;;;4752708;30;20149;-64
2022/05/06 02:06:24;;;;;;;34.83;20.17;;;8.40;99.90;;;;;;4752600;30;20062;-64
2022/05/06 02:08:49;;;;;;;30.42;20.60;;;7.90;99.90;;;;;;4747248;30;20127;-64
2022/05/06 02:11:15;;;;;;;33.33;20.90;;;8.60;99.90;;;;;;4719620;30;20060;-64
2022/05/06 02:13:41;;;;;;;30.77;20.27;;;8.00;99.90;;;;;;4734812;30;20052;-64
2022/05/06 02:16:07;;;;;;;36.03;21.00;;;;;;;;;;4735226;30;20059;-64
2022/05/06 02:18:33;;;;;;;33.33;19.70;;;7.80;99.90;;;;;;4735062;30;20417;-64
2022/05/06 02:21:00;;;;;;;29.95;20.10;;;8.20;99.90;;;;;;4735065;30;20061;-65
2022/05/06 02:23:26;;;;;;;34.05;18.83;;;7.90;99.90;;;;;;4734825;30;20517;-64
2022/05/06 02:25:53;;;;;;;28.85;19.08;;;8.10;99.90;;;;;;4734837;30;20053;-63
2022/05/06 02:28:19;;;;;;;30.27;19.67;;;8.10;99.90;;;;;;4734969;30;20141;-63
2022/05/06 02:33:31;;;;;;;32.47;20.10;;;;;;;;;;4735022;30;20056;-63
2022/05/06 02:36:01;;;;;;;32.00;19.80;;;8.30;99.90;;;;;;4735124;30;20059;-63
2022/05/06 02:38:27;;;;;;;34.33;19.45;;;8.20;99.90;;;;;;4734724;30;20056;-63
2022/05/06 02:40:53;;;;;;;29.05;19.58;;;7.70;99.90;;;;;;4734776;30;20486;-63
2022/05/06 02:43:19;;;;;;;34.72;19.67;;;;;;;;;;4718920;30;20064;-63
2022/05/06 02:45:45;;;;;;;31.73;19.60;;;7.90;99.90;;;;;;4734883;30;20085;-63
2022/05/06 02:48:11;;;;;;;36.40;21.45;;;7.70;99.90;;;;;;4734775;30;20053;-63
2022/05/06 02:50:38;;;;;;;33.65;21.67;;;7.80;99.90;;;;;;4734753;30;20059;-63
2022/05/06 02:53:04;;;;;;;33.88;20.55;;;7.70;99.90;;;;;;4734890;30;20382;-63
2022/05/06 02:55:31;;;;;;;33.03;20.80;;;7.70;99.90;;;;;;4734824;30;20049;-63
2022/05/06 02:57:57;;;;;;;31.23;20.42;;;7.00;99.90;;;;;;4733450;30;20136;-63
2022/05/06 03:00:23;;;;;;;35.55;22.38;;;7.70;99.90;;;;;;4734616;30;20139;-63
2022/05/06 03:02:50;;;;;;;32.85;21.05;;;7.20;99.90;;;;;;4734718;30;20146;-63
2022/05/06 03:05:16;;;;;;;35.30;20.88;;;6.90;99.90;;;;;;4734637;30;20057;-63
2022/05/06 03:07:43;;;;;;;33.08;20.90;;;7.50;99.90;;;;;;4734444;30;20048;-63
2022/05/06 03:10:09;;;;;;;32.63;20.17;;;6.70;99.90;;;;;;4718805;30;20057;-63
2022/05/06 03:12:36;;;;;;;32.35;20.75;;;7.50;99.90;;;;;;4734675;30;20056;-63
2022/05/06 03:15:04;;;;;;;34.88;20.95;;;7.40;99.90;;;;;;4734611;30;20053;-63
2022/05/06 03:17:34;;;;;;;30.88;20.63;;;7.40;99.90;;;;;;4737745;30;20068;-63
2022/05/06 03:20:00;;;;;;;33.40;20.85;;;7.60;99.90;;;;;;4721906;30;20068;-63
2022/05/06 03:22:27;;;;;;;34.63;20.10;;;6.90;99.90;;;;;;4737565;30;20536;-64
2022/05/06 03:24:52;;;;;;;32.33;20.40;;;7.10;99.90;;;;;;4737893;30;20060;-64
2022/05/06 03:30:04;;;;;;;33.20;19.67;;;7.30;99.90;;;;;;4737519;30;20575;-64
2022/05/06 03:32:31;;;;;;;31.30;20.67;;;7.30;99.90;;;;;;4737457;30;20113;-63
2022/05/06 03:34:57;;;;;;;32.50;20.27;;;7.10;99.90;;;;;;4737340;30;20060;-64
2022/05/06 03:37:23;;;;;;;29.83;20.50;;;7.70;99.90;;;;;;4737667;30;20049;-63
2022/05/06 03:39:49;;;;;;;33.40;21.05;;;7.10;99.90;;;;;;4737529;30;20053;-63
2022/05/06 03:42:14;;;;;;;31.65;20.60;;;7.20;99.90;;;;;;4737438;30;20056;-63
2022/05/06 03:44:41;;;;;;;28.92;19.92;;;7.20;99.90;;;;;;4721445;30;20136;-63
2022/05/06 03:47:07;;;;;;;28.60;19.58;;;;;;;;;;4737342;30;20515;-63
2022/05/06 03:49:33;;;;;;;32.72;19.77;;;6.90;99.90;;;;;;4737163;30;20572;-63
2022/05/06 03:51:59;;;;;;;32.30;20.75;;;7.10;99.90;;;;;;4737087;30;20088;-63
2022/05/06 03:54:26;;;;;;;35.30;21.13;;;;;;;;;;4737142;30;20057;-63
2022/05/06 03:56:52;;;;;;;30.25;20.40;;;;;;;;;;4720673;30;20053;-63
2022/05/06 03:59:18;;;;;;;28.45;20.13;;;7.00;99.90;;;;;;4737054;30;20144;-63
2022/05/06 04:01:44;;;;;;;33.67;21.70;;;;;;;;;;4736805;30;20191;-63
2022/05/06 04:04:10;;;;;;;32.47;21.92;;;7.00;99.90;;;;;;4736896;30;20071;-63
2022/05/06 04:06:36;;;;;;;38.67;22.90;;;;;;;;;;4737107;30;20132;-63
2022/05/06 04:09:01;;;;;;;31.33;21.42;;;7.20;99.90;;;;;;4736851;30;20049;-63
2022/05/06 04:11:27;;;;;;;34.63;22.33;;;7.20;99.90;;;;;;4736816;30;20512;-63
2022/05/06 04:13:53;;;;;;;35.33;23.15;;;;;;;;;;4721269;30;20148;-63
2022/05/06 04:16:19;;;;;;;35.83;22.48;;;7.20;99.90;;;;;;4736639;30;20059;-63
2022/05/06 04:18:45;;;;;;;39.17;23.02;;;7.30;99.90;;;;;;4736695;30;20056;-63
2022/05/06 04:23:55;;;;;;;35.45;21.67;;;7.20;99.90;;;;;;4736819;30;20052;-63
2022/05/06 04:26:21;;;;;;;39.28;23.38;;;7.60;99.90;;;;;;4736558;30;20136;-63
2022/05/06 04:28:47;;;;;;;37.38;23.50;;;;;;;;;;4720885;30;20158;-63
2022/05/06 04:31:13;;;;;;;38.13;24.42;;;6.90;99.90;;;;;;4736859;30;20560;-64
2022/05/06 04:33:40;;;;;;;37.88;23.00;;;7.50;99.90;;;;;;4736620;30;20060;-63
2022/05/06 04:36:06;;;;;;;35.45;21.88;;;7.80;99.90;;;;;;4736566;30;20053;-63
2022/05/06 04:38:33;;;;;;;30.50;21.00;;;;;;;;;;4736272;30;20056;-62
2022/05/06 04:41:00;;;;;;;32.05;21.77;;;8.30;99.90;;;;;;4720638;30;20135;-63
2022/05/06 04:43:32;;;;;;;29.60;20.35;;;9.00;99.90;;;;;;4736060;30;20443;-63
2022/05/06 04:45:58;;;;;;;32.42;21.08;;;;;;;;;;4736544;30;20051;-62
2022/05/06 04:48:25;;;;;;;31.88;21.23;;;9.60;99.90;;;;;;4736131;30;20056;-63
2022/05/06 04:50:50;;;;;;;28.23;20.45;;;9.70;99.90;;;;;;4736229;30;20136;-63
2022/05/06 04:53:16;;;;;;;30.95;21.38;;;9.60;99.90;;;;;;4736174;30;20165;-62
2022/05/06 04:55:45;;;;;;;28.05;19.48;;;9.50;99.90;;;;;;4736190;30;20052;-63
2022/05/06 04:58:12;;;;;;;31.95;20.92;;;9.60;99.90;;;;;;4735844;30;20107;-63
2022/05/06 05:00:38;;;;;;;30.73;21.23;;;9.70;99.90;;;;;;4738237;30;20406;-63
2022/05/06 05:03:04;;;;;;;33.35;21.33;;;10.30;99.90;;;;;;4736092;30;20048;-63
2022/05/06 05:05:30;;;;;;;33.50;21.65;;;9.70;99.90;;;;;;4736310;30;20056;-63
2022/05/06 05:07:57;;;;;;;37.47;22.40;;;9.30;99.90;;;;;;4735900;30;20055;-63
2022/05/06 05:10:25;;;;;;;33.53;22.50;;;9.80;99.90;;;;;;4749283;30;20061;-63
2022/05/06 05:12:51;;;;;;;44.40;22.20;;;9.80;99.90;;;;;;4749470;30;20147;-63
2022/05/06 05:15:17;;;;;;;36.08;21.00;;;10.60;99.90;;;;;;4735925;30;20064;-63
2022/05/06 05:17:47;;;;;;;33.08;20.92;;;10.90;99.90;;;;;;4749119;30;20068;-63
2022/05/06 05:20:13;;;;;;;31.08;19.08;;;11.40;99.90;;;;;;4735467;30;20053;-63
2022/05/06 05:22:40;;;;;;;32.20;19.48;;;12.30;99.90;;;;;;4735860;30;20060;-63
2022/05/06 05:25:07;;;;;;;30.67;20.80;;;12.80;99.90;;;;;;4735691;30;20522;-64
2022/05/06 05:27:33;;;;;;;32.95;19.33;;;13.90;99.90;;;;;;4735764;30;20048;-64
2022/05/06 05:30:01;;;;;;;26.88;19.35;;;15.10;99.90;;;;;;4735718;30;20060;-64
2022/05/06 05:32:27;;;;;;;24.83;17.95;;;15.50;99.90;;;;;;4735618;30;20052;-64
2022/05/06 05:34:52;;;;;;;26.10;17.35;;;16.60;99.90;;;;;;4746110;30;20148;-64
2022/05/06 05:37:18;;;;;;;25.90;16.83;;;17.20;99.90;;;;;;4752181;30;20454;-64
2022/05/06 05:39:45;;;;;;;28.85;17.38;;;18.00;99.90;;;;;;4751319;30;20418;-64
2022/05/06 05:42:13;;;;;;;24.20;16.13;;;18.60;99.90;;;;;;4749844;30;20157;-64
2022/05/06 05:50:07;;;;;;;25.67;16.98;;;18.30;98.30;;;;;;4750107;30;20594;-64
2022/05/06 05:52:34;;;;;;;21.50;15.88;;;17.70;99.90;;;;;;4752080;30;20048;-64
2022/05/06 05:55:02;;;;;;;23.77;16.95;;;17.80;99.90;;;;;;4751136;30;20068;-64
2022/05/06 05:57:28;;;;;;;25.02;16.75;;;17.60;99.90;;;;;;4752358;30;20060;-64
2022/05/06 05:59:54;;;;;;;25.95;17.70;;;18.10;99.90;;;;;;4751364;30;20063;-65
2022/05/06 06:02:20;;;;;;;25.35;17.50;;;18.60;98.80;;;;;;4736974;30;20064;-64
2022/05/06 06:04:45;;;;;;;29.77;17.95;;;19.30;95.90;;;;;;4752311;30;20052;-65
2022/05/06 06:07:11;;;;;;;26.30;18.15;;;20.50;92.00;;;;;;4752496;30;20090;-65
2022/05/06 06:09:40;;;;;;;30.55;16.48;;;21.40;89.30;;;;;;4752624;30;20064;-65
2022/05/06 06:12:07;;;;;;;32.63;18.02;;;21.80;68.60;;;;;;4752495;30;20062;-65
2022/05/06 06:14:32;;;;;;;28.75;17.77;;;22.40;81.20;;;;;;4752534;30;20527;-65
2022/05/06 06:16:58;;;;;;;32.83;20.20;;;;;;;;;;4752343;30;20092;-64
2022/05/06 06:19:24;;;;;;;25.13;17.70;;;23.70;75.60;;;;;;4752318;30;20056;-65
2022/05/06 06:21:49;;;;;;;31.05;18.50;;;24.30;73.80;;;;;;4736645;30;20402;-65
2022/05/06 06:24:15;;;;;;;28.63;18.77;;;24.80;71.30;;;;;;4752372;30;20052;-65
2022/05/06 06:26:41;;;;;;;28.25;18.60;;;24.00;70.40;;;;;;4752458;30;20052;-65
2022/05/06 06:29:06;;;;;;;29.25;19.15;;;25.00;70.30;;;;;;4736341;30;20058;-65
2022/05/06 06:31:32;;;;;;;31.95;19.98;;;25.20;69.50;;;;;;4752337;30;20071;-65
2022/05/06 06:33:59;;;;;;;33.25;20.48;;;25.70;56.60;;;;;;4736201;30;20052;-66
2022/05/06 06:36:26;;;;;;;36.65;20.00;;;25.40;52.60;;;;;;4736171;30;20059;-66
2022/05/06 06:38:52;;;;;;;31.10;19.70;;;25.80;55.50;;;;;;4751768;30;20109;-65
2022/05/06 06:41:18;;;;;;;33.20;19.58;;;25.70;65.10;;;;;;4751661;30;20048;-65
2022/05/06 06:43:44;;;;;;;39.88;20.38;;;26.50;64.50;;;;;;4752164;30;20060;-65
2022/05/06 06:46:10;;;;;;;29.15;20.80;;;26.80;64.00;;;;;;4736398;30;20478;-65
2022/05/06 06:48:35;;;;;;;35.17;20.60;;;26.70;63.30;;;;;;4736251;30;20102;-65
2022/05/06 06:51:01;;;;;;;32.47;20.77;;;26.80;62.50;;;;;;4737311;30;20091;-65
2022/05/06 06:53:27;;;;;;;39.78;20.05;;;27.20;62.90;;;;;;4755974;30;20056;-65
2022/05/06 06:55:53;;;;;;;43.70;19.98;;;26.90;61.60;;;;;;4755848;30;20060;-65
2022/05/06 06:58:18;;;;;;;33.20;20.15;;;26.60;60.50;;;;;;4739613;30;20060;-65
2022/05/06 07:00:47;;;;;;;33.20;20.08;;;27.30;58.10;;;;;;4755385;30;20060;-65
2022/05/06 07:03:14;;;;;;;32.75;19.92;;;27.40;46.30;;;;;;4755545;30;20071;-65
2022/05/06 07:13:58;;;;;;;42.90;22.23;;;;;;;;;;4755411;30;20125;-65
2022/05/06 07:16:27;;;;;;;34.33;22.10;;;27.90;58.60;;;;;;4755301;30;20143;-65
2022/05/06 07:18:52;;;;;;;33.45;21.10;;;27.70;59.40;;;;;;4755303;30;20063;-65
2022/05/06 07:21:21;;;;;;;34.70;20.83;;;28.20;60.60;;;;;;4755182;30;20052;-65
2022/05/06 07:23:47;;;;;;;32.05;21.30;;;28.00;59.90;;;;;;4755117;30;20060;-65
2022/05/06 07:26:13;;;;;;;34.65;20.27;;;27.40;60.20;;;;;;4755651;30;20448;-65
2022/05/06 07:28:41;;;;;;;29.85;20.00;;;26.80;61.30;;;;;;4755441;30;20537;-65
2022/05/06 07:31:07;;;;;;;32.85;19.80;;;26.30;62.60;;;;;;4755151;30;20127;-65
2022/05/06 07:33:33;;;;;;;28.63;18.88;;;;;;;;;;4755286;30;20084;-65
2022/05/06 07:35:59;;;;;;;33.08;17.45;;;25.90;65.00;;;;;;4755285;30;20063;-65
2022/05/06 07:38:25;;;;;;;25.77;16.73;;;25.50;65.10;;;;;;4739054;30;20052;-65
2022/05/06 07:40:51;;;;;;;24.60;16.20;;;25.00;65.80;;;;;;4754934;30;20131;-65
2022/05/06 07:43:16;;;;;;;23.95;16.63;;;25.30;67.30;;;;;;4754970;30;20056;-65
2022/05/06 07:45:42;;;;;;;21.70;15.75;;;24.40;59.50;;;;;;4754926;30;20061;-65
2022/05/06 07:48:13;;;;;;;25.45;16.23;;;23.40;69.30;;;;;;4755085;30;20044;-65
2022/05/06 07:50:44;;;;;;;25.15;16.85;;;;;;;;;;4754747;30;20052;-65
2022/05/06 07:53:15;;;;;;;23.20;16.00;;;23.10;71.00;;;;;;4738676;30;20064;-65
2022/05/06 07:55:42;;;;;;;29.58;17.10;;;23.00;72.20;;;;;;4754796;30;20060;-65
2022/05/06 07:58:10;;;;;;;29.65;17.27;;;23.50;72.70;;;;;;4754542;30;20054;-65
2022/05/06 08:00:36;;;;;;;24.75;16.88;;;;;;;;;;4741529;30;20060;-64
2022/05/06 08:05:49;;;;;;;26.92;15.82;;;23.30;68.70;;;;;;4754745;30;20471;-65
2022/05/06 08:08:15;;;;;;;26.23;16.52;;;23.10;75.50;;;;;;4754269;30;20055;-65
2022/05/06 08:10:41;;;;;;;25.73;16.42;;;;;;;;;;4754465;30;20076;-65
2022/05/06 08:13:07;;;;;;;24.08;16.50;;;23.20;72.30;;;;;;4754409;30;20056;-64
2022/05/06 08:15:33;;;;;;;31.35;17.60;;;22.00;73.00;;;;;;4753027;30;20056;-65
2022/05/06 08:17:59;;;;;;;26.83;17.02;;;22.90;80.10;;;;;;4754674;30;20378;-65
2022/05/06 08:20:24;;;;;;;22.77;17.00;;;22.60;81.90;;;;;;4754381;30;20554;-65
2022/05/06 08:22:50;;;;;;;23.40;15.93;;;22.30;78.00;;;;;;4754305;30;20138;-65
2022/05/06 08:25:16;;;;;;;30.13;16.27;;;;;;;;;;4754157;30;20545;-64
2022/05/06 08:27:44;;;;;;;23.25;17.48;;;22.00;76.70;;;;;;4754014;30;20055;-64
2022/05/06 08:30:12;;;;;;;24.38;16.70;;;22.10;75.90;;;;;;4753887;30;20095;-64
2022/05/06 08:32:40;;;;;;;26.20;17.50;;;22.10;87.20;;;;;;4753922;30;20096;-65
2022/05/06 08:35:06;;;;;;;26.55;17.38;;;22.00;71.30;;;;;;4754083;30;20063;-64
2022/05/06 08:37:45;;;;;;;23.88;16.58;;;22.50;90.40;;;;;;4753971;30;20092;-64
2022/05/06 08:40:22;;;;;;;20.80;15.88;;;21.00;90.60;;;;;;4752613;30;20434;-64
2022/05/06 08:42:48;;;;;;;21.10;15.32;;;;;;;;;;4753887;30;20056;-64
2022/05/06 08:50:58;;;;;;;21.30;15.38;;;20.90;92.80;;;;;;4753757;30;20060;-64
2022/05/06 08:53:35;;;;;;;21.00;14.93;;;20.90;80.20;;;;;;4753537;30;20059;-64
2022/05/06 08:56:04;;;;;;;18.98;14.48;;;20.30;94.60;;;;;;4753866;30;20056;-64
2022/05/06 08:58:33;;;;;;;21.25;14.57;;;20.70;96.30;;;;;;4753630;30;20060;-64
2022/05/06 09:01:09;;;;;;;24.17;14.85;;;20.40;96.20;;;;;;4753283;30;20090;-64
2022/05/06 09:03:40;;;;;;;20.38;14.82;;;20.60;97.20;;;;;;4753294;30;20060;-64
2022/05/06 09:06:23;;;;;;;25.13;15.30;;;20.70;95.50;;;;;;4753052;30;20386;-65
2022/05/06 09:08:50;;;;;;;27.50;15.40;;;20.60;90.10;;;;;;4753284;30;20404;-64
2022/05/06 09:14:12;;;;;;;21.67;15.63;;;20.70;88.50;;;;;;4733743;30;20056;-65
2022/05/06 09:16:40;;;;;;;24.40;15.90;;;20.50;99.20;;;;;;4753067;30;20139;-64
2022/05/06 09:19:21;;;;;;;21.33;14.50;;;20.70;99.60;;;;;;4753138;30;20059;-65
2022/05/06 09:22:13;;;;;;;19.20;13.63;;;20.70;99.90;;;;;;4753301;30;20055;-65
2022/05/06 09:24:39;;;;;;;20.85;13.13;;;21.40;90.10;;;;;;4753035;30;20067;-65
2022/05/06 09:27:19;;;;;;;18.65;13.55;;;20.80;88.20;;;;;;4752933;30;20406;-64
2022/05/06 09:29:50;;;;;;;18.83;13.93;;;21.00;99.90;;;;;;4752987;30;20052;-65
2022/05/06 09:32:30;;;;;;;14.38;10.45;;;20.40;99.90;;;;;;4752979;30;20149;-65
2022/05/06 09:35:14;;;;;;;18.15;11.75;;;20.80;92.30;;;;;;4752792;30;20081;-65
2022/05/06 09:37:42;;;;;;;19.75;12.10;;;20.80;88.20;;;;;;4752140;30;20111;-65
2022/05/06 09:40:19;;;;;;;19.80;11.93;;;20.70;99.90;;;;;;4752834;30;20060;-65
2022/05/06 09:42:55;;;;;;;16.63;12.07;;;20.90;88.90;;;;;;4752539;30;20083;-65
2022/05/06 09:45:37;;;;;;;17.63;11.40;;;20.80;87.80;;;;;;4753066;30;20056;-65
2022/05/06 09:48:05;;;;;;;15.82;10.98;;;20.70;99.90;;;;;;4752995;30;20132;-65
2022/05/06 09:50:32;;;;;;;15.07;10.35;;;;;;;;;;4752860;30;20405;-65
2022/05/06 09:53:08;;;;;;;15.35;9.90;;;20.90;99.90;;;;;;4752893;30;20063;-65
2022/05/06 09:55:39;;;;;;;17.05;10.07;;;20.90;99.80;;;;;;4752714;30;20053;-65
2022/05/06 09:58:05;;;;;;;13.43;9.93;;;21.00;99.60;;;;;;4752441;30;20059;-65
2022/05/06 10:00:32;;;;;;;14.88;9.65;;;20.50;99.10;;;;;;4737219;30;20522;-65
2022/05/06 10:03:00;;;;;;;16.35;10.30;;;;;;;;;;4751607;30;20051;-65
2022/05/06 10:05:28;;;;;;;16.10;10.95;;;20.80;95.80;;;;;;4752581;30;20143;-65
2022/05/06 10:07:58;;;;;;;18.08;11.02;;;20.90;99.90;;;;;;4752742;30;20048;-65
2022/05/06 10:10:34;;;;;;;17.88;10.50;;;21.20;99.90;;;;;;4752479;30;20129;-65
2022/05/06 10:13:10;;;;;;;14.95;10.25;;;21.10;89.50;;;;;;4752659;30;20063;-65
2022/05/06 10:15:36;;;;;;;;;;;21.10;90.10;;;;;;4753180;30;20186;-65
2022/05/06 10:18:03;;;;;;;16.88;10.00;;;21.20;89.00;;;;;;4752512;30;19922;-64
2022/05/06 10:20:38;;;;;;;18.00;10.40;;;21.00;99.80;;;;;;4752658;30;20048;-65
2022/05/06 10:23:07;;;;;;;;;;;21.20;89.00;;;;;;4753048;30;20056;-66
2022/05/06 10:25:42;;;;;;;13.68;7.78;;;21.40;99.30;;;;;;4752433;30;19922;-65
2022/05/06 10:34:09;;;;;;;;;;;21.30;83.70;;;;;;4742952;30;20051;-65
2022/05/06 10:36:46;;;;;;;16.40;9.93;;;21.30;84.90;;;;;;4758234;30;19922;-65
2022/05/06 10:39:27;;;;;;;21.23;10.23;;;21.40;84.90;;;;;;4741085;30;20068;-64
2022/05/06 10:42:04;;;;;;;14.50;9.50;;;21.30;97.90;;;;;;4751202;30;20048;-64
2022/05/06 10:44:39;;;;;;;12.55;7.60;;;22.20;97.80;;;;;;4750871;30;20070;-65
2022/05/06 10:47:18;;;;;;;10.32;5.40;;;21.40;96.10;;;;;;4751464;30;20072;-65
2022/05/06 10:49:50;;;;;;;9.82;6.63;;;21.70;95.50;;;;;;4752071;30;20509;-65
2022/05/06 10:52:28;;;;;;;10.30;6.85;;;21.60;78.50;;;;;;4752414;30;20052;-66
2022/05/06 10:55:00;;;;;;;11.27;6.28;;;22.30;91.10;;;;;;4752158;30;20060;-66
2022/05/06 10:57:28;;;;;;;8.23;5.72;;;22.00;95.00;;;;;;4752274;30;20052;-66
2022/05/06 10:59:58;;;;;;;10.35;5.88;;;21.80;77.30;;;;;;4750710;30;20060;-66
2022/05/06 11:02:32;;;;;;;9.70;5.25;;;21.90;94.10;;;;;;4751980;30;20056;-66
2022/05/06 11:05:00;;;;;;;8.57;3.83;;;21.90;74.80;;;;;;4737301;30;20060;-67
2022/05/06 11:07:27;;;;;;;4.57;3.20;;;21.90;73.70;;;;;;4752038;30;20048;-66
2022/05/06 11:09:53;;;;;;;6.40;3.67;;;21.10;78.90;;;;;;4752219;30;20127;-66
2022/05/06 11:12:35;;;;;;;4.72;3.58;;;22.10;91.80;;;;;;4751978;30;20086;-67
2022/05/06 11:15:03;;;;;;;8.02;3.80;;;22.20;91.80;;;;;;4751973;30;20139;-67
2022/05/06 11:17:31;;;;;;;7.28;3.80;;;22.10;69.50;;;;;;4736540;30;20059;-67
2022/05/06 11:19:58;;;;;;;6.38;3.83;;;22.30;90.80;;;;;;4752020;30;20067;-67
2022/05/06 11:22:25;;;;;;;6.20;3.13;;;22.20;69.00;;;;;;4751802;30;20130;-67
2022/05/06 11:24:58;;;;;;;39.58;4.78;;;21.20;90.40;;;;;;4751737;30;20052;-67
2022/05/06 11:27:24;;;;;;;3.88;3.13;;;22.30;90.20;;;;;;4751644;30;20505;-67
2022/05/06 11:30:00;;;;;;;7.13;2.92;;;21.50;89.90;;;;;;4751777;30;20406;-67
2022/05/06 11:32:29;;;;;;;41.47;3.97;;;22.20;89.40;;;;;;4750675;30;20091;-65
2022/05/06 11:34:59;;;;;;;3.13;2.80;;;22.30;65.90;;;;;;4750391;30;20056;-67
2022/05/06 11:37:31;;;;;;;3.80;3.20;;;21.60;87.80;;;;;;4753171;30;20425;-67
2022/05/06 11:42:41;;;;;;;4.45;3.70;;;21.30;86.50;;;;;;4754385;30;20447;-67
2022/05/06 11:47:52;;;;;;;43.85;4.53;;;22.40;87.90;;;;;;4741515;30;20550;-67
2022/05/06 11:50:18;;;;;;;4.43;3.25;;;21.70;67.50;;;;;;4751947;30;20044;-67
2022/05/06 11:52:46;;;;;;;56.45;6.40;;;22.60;64.80;;;;;;4741857;30;20048;-67
2022/05/06 11:55:14;;;;;;;6.72;3.75;;;22.90;86.40;;;;;;4737804;30;20075;-66
2022/05/06 11:57:41;;;;;;;19.20;4.70;;;22.70;87.60;;;;;;4754262;30;20513;-66
2022/05/06 12:00:08;;;;;;;6.45;3.10;;;23.20;86.40;;;;;;4754145;30;20509;-66
2022/05/06 12:02:34;;;;;;;8.50;3.40;;;22.10;75.20;;;;;;4764760;30;20056;-66
2022/05/06 12:05:00;;;;;;;3.78;3.22;;;23.30;86.20;;;;;;4772511;30;20059;-66
2022/05/06 12:07:42;;;;;;;4.32;2.80;;;22.80;83.90;;;;;;4772056;30;20090;-65
2022/05/06 12:10:08;;;;;;;3.92;2.33;;;23.10;82.50;;;;;;4756321;30;20505;-65
2022/05/06 12:12:34;;;;;;;6.32;3.00;;;;;;;;;;4772451;30;20077;-65
2022/05/06 12:15:10;;;;;;;5.10;3.00;;;22.50;58.40;;;;;;4772017;30;20113;-66
2022/05/06 12:17:40;;;;;;;2.25;1.92;;;;;;;;;;4756079;30;20052;-66
2022/05/06 12:20:06;;;;;;;3.58;2.00;;;;;;;;;;4772371;30;20109;-66
2022/05/06 12:22:32;;;;;;;6.57;3.10;;;23.60;80.80;;;;;;4756406;30;20063;-66
2022/05/06 12:24:58;;;;;;;6.63;4.15;;;23.10;79.80;;;;;;4772087;30;20423;-66
2022/05/06 12:27:24;;;;;;;6.30;3.50;;;;;;;;;;4756205;30;20059;-65
2022/05/06 12:29:50;;;;;;;6.03;3.60;;;23.60;79.70;;;;;;4771975;30;20214;-67
2022/05/06 12:32:16;;;;;;;4.03;3.40;;;24.10;79.10;;;;;;4771784;30;20052;-67
2022/05/06 12:34:45;;;;;;;7.30;3.40;;;;;;;;;;4772068;30;20056;-68
2022/05/06 12:37:14;;;;;;;7.25;3.60;;;23.60;78.30;;;;;;4771774;30;20091;-69
2022/05/06 12:39:44;;;;;;;4.20;2.92;;;23.60;78.70;;;;;;4755985;30;20052;-70
2022/05/06 12:42:18;;;;;;;6.78;2.67;;;23.80;54.20;;;;;;4756154;30;20051;-69
2022/05/06 12:44:45;;;;;;;5.87;2.70;;;24.50;76.40;;;;;;4771551;30;20052;-69
2022/05/06 12:50:11;;;;;;;9.13;3.55;;;23.90;53.10;;;;;;4760158;30;20109;-64
2022/05/06 12:52:37;;;;;;;6.45;3.60;;;23.90;74.70;;;;;;4749142;30;20131;-62
2022/05/06 12:55:06;;;;;;;4.28;2.80;;;23.90;52.00;;;;;;4769310;30;20514;-69
2022/05/06 12:57:32;;;;;;;10.35;3.08;;;23.60;73.60;;;;;;4771148;30;20056;-66
2022/05/06 12:59:58;;;;;;;5.60;3.10;;;24.30;74.50;;;;;;4771304;30;20059;-66
2022/05/06 13:02:24;;;;;;;8.80;3.53;;;24.10;74.30;;;;;;4769729;30;20417;-65
2022/05/06 13:04:49;;;;;;;7.15;3.00;;;24.20;73.50;;;;;;4771457;30;20497;-66
2022/05/06 13:07:16;;;;;;;3.67;2.53;;;24.60;73.20;;;;;;4771068;30;20044;-65
2022/05/06 13:09:42;;;;;;;4.90;2.30;;;;;;;;;;4771262;30;20405;-65
2022/05/06 13:12:12;;;;;;;3.83;2.40;;;24.50;72.40;;;;;;4771457;30;20058;-67
2022/05/06 13:14:38;;;;;;;3.92;2.58;;;;;;;;;;4770075;30;20101;-68
2022/05/06 13:17:04;;;;;;;7.07;2.45;;;24.20;56.70;;;;;;4770244;30;20056;-68
2022/05/06 13:19:30;;;;;;;7.75;2.50;;;24.40;71.50;;;;;;4784780;30;20090;-67
2022/05/06 13:21:56;;;;;;;6.80;2.58;;;24.50;71.30;;;;;;4771175;30;20102;-66
2022/05/06 13:24:23;;;;;;;6.88;2.60;;;24.70;72.20;;;;;;4784442;30;20112;-67
2022/05/06 13:26:49;;;;;;;4.28;2.30;;;;;;;;;;4771218;30;20127;-65
2022/05/06 13:29:15;;;;;;;4.88;2.00;;;;;;;;;;4770910;30;20062;-63
2022/05/06 13:31:41;;;;;;;4.57;2.00;;;24.50;70.10;;;;;;4771162;30;20109;-64
2022/05/06 13:34:08;;;;;;;6.03;2.15;;;;;;;;;;4770698;30;20444;-67
2022/05/06 13:36:34;;;;;;;5.90;1.80;;;;;;;;;;4760636;30;20070;-65
2022/05/06 13:39:00;;;;;;;3.58;2.03;;;24.50;71.30;;;;;;4769843;30;20063;-66
2022/05/06 13:41:26;;;;;;;4.63;2.35;;;25.10;71.80;;;;;;4769759;30;20059;-64
2022/05/06 13:43:52;;;;;;;6.65;3.10;;;24.90;66.60;;;;;;4770254;30;20125;-67
2022/05/06 13:46:19;;;;;;;3.67;2.42;;;;;;;;;;4769644;30;20125;-68
2022/05/06 13:48:44;;;;;;;4.40;2.40;;;24.60;71.30;;;;;;4770812;30;20052;-65